| time (UTC) | temp C | wind direction | speed KPH | gust KPH | rain 1hr cm | rain 24hr cm | rain mn cm | humidity % | barometer mb |
| 20260506033735 | 10 | 213 | 0.0 | 1.6 | 0.15 | 2.84 | 2.84 | 96 | 1006.2 |
| 20260506033224 | 10 | 213 | 0.0 | 1.6 | 0.18 | 2.84 | 2.84 | 96 | 1006.2 |
| 20260506032710 | 10 | 213 | 0.0 | 3.2 | 0.13 | 2.79 | 2.79 | 96 | 1006.2 |
| 20260506032200 | 10 | 213 | 0.0 | 3.2 | 0.10 | 2.77 | 2.77 | 96 | 1006.3 |
| 20260506031703 | 10 | 212 | 0.0 | 3.2 | 0.10 | 2.77 | 2.77 | 96 | 1006.2 |
| 20260506031144 | 10 | 212 | 0.0 | 3.2 | 0.10 | 2.74 | 2.74 | 96 | 1006.2 |
| 20260506030908 | 10 | 212 | 0.0 | 1.6 | 0.10 | 2.74 | 2.74 | 96 | 1005.8 |
| 20260506030138 | 10 | 212 | 0.0 | 1.6 | 0.10 | 2.72 | 2.72 | 96 | 1005.9 |
| 20260506025135 | 10 | 212 | 0.0 | 1.6 | 0.15 | 2.72 | 2.72 | 96 | 1005.7 |
| 20260506024849 | 10 | 212 | 0.0 | 1.6 | 0.15 | 2.69 | 2.69 | 96 | 1005.7 |
| 20260506024117 | 10 | 212 | 0.0 | 0.0 | 0.18 | 2.69 | 2.69 | 96 | 1005.9 |
| 20260506023616 | 10 | 212 | 0.0 | 0.0 | 0.20 | 2.69 | 2.69 | 95 | 1005.8 |
| 20260506023103 | 10 | 212 | 0.0 | 0.0 | 0.20 | 2.67 | 2.67 | 95 | 1005.8 |
| 20260506022551 | 10 | 212 | 0.0 | 0.0 | 0.23 | 2.67 | 2.67 | 95 | 1005.8 |
| 20260506022039 | 10 | 212 | 0.0 | 0.0 | 0.25 | 2.67 | 2.67 | 95 | 1005.8 |
| 20260506021803 | 9 | 212 | 0.0 | 0.0 | 0.25 | 2.67 | 2.67 | 95 | 1005.7 |
| 20260506021038 | 9 | 212 | 0.0 | 0.0 | 0.25 | 2.64 | 2.64 | 95 | 1005.8 |
| 20260506020523 | 9 | 212 | 0.0 | 0.0 | 0.25 | 2.62 | 2.62 | 95 | 1005.9 |
| 20260506020021 | 9 | 212 | 0.0 | 0.0 | 0.28 | 2.62 | 2.62 | 95 | 1005.9 |
| 20260506015508 | 9 | 212 | 0.0 | 0.0 | 0.28 | 2.59 | 2.59 | 95 | 1005.7 |
| 20260506014958 | 9 | 212 | 0.0 | 0.0 | 0.25 | 2.54 | 2.54 | 95 | 1005.9 |
| 20260506014456 | 9 | 212 | 0.0 | 0.0 | 0.33 | 2.51 | 2.54 | 95 | 1005.8 |
| 20260506013920 | 9 | 212 | 0.0 | 0.0 | 0.41 | 2.51 | 2.51 | 95 | 1005.8 |
| 20260506013419 | 9 | 212 | 0.0 | 0.0 | 0.41 | 2.49 | 2.49 | 95 | 1005.9 |
| 20260506012838 | 9 | 212 | 0.0 | 0.0 | 0.41 | 2.46 | 2.46 | 95 | 1005.8 |
| 20260506012337 | 9 | 212 | 0.0 | 0.0 | 0.41 | 2.44 | 2.44 | 95 | 1006.2 |
| 20260506011814 | 9 | 212 | 0.0 | 0.0 | 0.38 | 2.41 | 2.41 | 95 | 1006.0 |
| 20260506011302 | 9 | 212 | 0.0 | 0.0 | 0.38 | 2.39 | 2.41 | 95 | 1006.2 |
| 20260506011018 | 9 | 212 | 0.0 | 0.0 | 0.43 | 2.36 | 2.36 | 95 | 1006.5 |
| 20260506010252 | 9 | 212 | 0.0 | 0.0 | 0.43 | 2.34 | 2.34 | 95 | 1006.3 |
| 20260506005740 | 9 | 212 | 0.0 | 0.0 | 0.43 | 2.31 | 2.34 | 95 | 1006.4 |
| 20260506005239 | 9 | 212 | 0.0 | 3.2 | 0.46 | 2.29 | 2.29 | 95 | 1006.4 |
| 20260506004736 | 9 | 212 | 0.0 | 3.2 | 0.46 | 2.24 | 2.26 | 95 | 1006.5 |
| 20260506004238 | 9 | 212 | 0.0 | 3.2 | 0.43 | 2.13 | 2.16 | 95 | 1006.8 |
| 20260506003237 | 9 | 212 | 0.0 | 0.0 | 0.51 | 2.08 | 2.08 | 95 | 1006.3 |
| 20260506002735 | 9 | 212 | 0.0 | 0.0 | 0.51 | 2.06 | 2.06 | 95 | 1005.9 |
| 20260506002228 | 9 | 212 | 0.0 | 0.0 | 0.56 | 2.03 | 2.03 | 95 | 1006.2 |
| 20260506001716 | 9 | 212 | 0.0 | 0.0 | 0.56 | 2.01 | 2.01 | 95 | 1006.0 |
| 20260506001201 | 9 | 212 | 0.0 | 0.0 | 0.61 | 1.98 | 1.98 | 95 | 1006.3 |
| 20260506000701 | 9 | 212 | 0.0 | 1.6 | 0.58 | 1.93 | 1.93 | 95 | 1006.4 |
| 20260506000159 | 9 | 212 | 0.0 | 3.2 | 0.56 | 1.91 | 1.91 | 94 | 1006.6 |
| 20260505235651 | 9 | 212 | 0.0 | 3.2 | 0.61 | 1.88 | 1.88 | 94 | 1006.0 |
| 20260505235142 | 9 | 212 | 0.0 | 1.6 | 0.61 | 1.83 | 1.83 | 94 | 1006.5 |
| 20260505234905 | 9 | 212 | 0.0 | 1.6 | 0.58 | 1.75 | 1.75 | 94 | 1006.6 |
| 20260505234137 | 9 | 212 | 0.0 | 0.0 | 0.61 | 1.70 | 1.70 | 94 | 1006.4 |
| 20260505233855 | 9 | 212 | 0.0 | 0.0 | 0.64 | 1.65 | 1.65 | 94 | 1006.2 |
| 20260505233129 | 9 | 212 | 0.0 | 0.0 | 0.61 | 1.57 | 1.57 | 94 | 1006.3 |
| 20260505232630 | 9 | 212 | 0.0 | 1.6 | 0.61 | 1.52 | 1.52 | 94 | 1006.0 |
| 20260505232128 | 9 | 212 | 0.0 | 1.6 | 0.58 | 1.47 | 1.47 | 94 | 1005.9 |
| 20260505231628 | 9 | 212 | 0.0 | 1.6 | 0.58 | 1.45 | 1.45 | 94 | 1006.0 |
| 20260505231123 | 9 | 212 | 0.0 | 0.0 | 0.53 | 1.37 | 1.37 | 94 | 1006.3 |
| 20260505230620 | 9 | 212 | 0.0 | 0.0 | 0.53 | 1.35 | 1.35 | 94 | 1006.2 |
| 20260505225557 | 9 | 212 | 0.0 | 3.2 | 0.51 | 1.24 | 1.27 | 94 | 1006.0 |
| 20260505225033 | 10 | 212 | 0.0 | 6.4 | 0.48 | 1.19 | 1.22 | 94 | 1005.9 |
| 20260505224531 | 10 | 212 | 1.6 | 8.0 | 0.48 | 1.14 | 1.17 | 93 | 1005.9 |
| 20260505224024 | 10 | 196 | 0.0 | 8.0 | 0.48 | 1.09 | 1.09 | 93 | 1006.3 |
| 20260505223525 | 10 | 259 | 0.0 | 1.6 | 0.46 | 0.99 | 1.02 | 94 | 1006.2 |
| 20260505222953 | 10 | 259 | 0.0 | 3.2 | 0.46 | 0.94 | 0.94 | 93 | 1005.8 |
| 20260505222441 | 10 | 273 | 0.0 | 4.8 | 0.46 | 0.89 | 0.89 | 93 | 1006.3 |
| 20260505222159 | 10 | 284 | 0.0 | 4.8 | 0.46 | 0.86 | 0.89 | 93 | 1006.2 |
| 20260505221437 | 10 | 289 | 1.6 | 8.0 | 0.48 | 0.86 | 0.86 | 93 | 1005.8 |
| 20260505220934 | 10 | 258 | 1.6 | 8.0 | 0.48 | 0.84 | 0.84 | 93 | 1005.9 |
| 20260505220420 | 10 | 271 | 1.6 | 8.0 | 0.51 | 0.79 | 0.81 | 93 | 1005.8 |
| 20260505215920 | 10 | 179 | 1.6 | 8.0 | 0.53 | 0.76 | 0.76 | 93 | 1006.2 |
| 20260505215415 | 10 | 302 | 0.0 | 4.8 | 0.48 | 0.71 | 0.74 | 93 | 1006.2 |
| 20260505214909 | 10 | 232 | 0.0 | 3.2 | 0.53 | 0.71 | 0.71 | 93 | 1006.2 |
| 20260505214408 | 10 | 231 | 1.6 | 4.8 | 0.48 | 0.64 | 0.64 | 93 | 1006.2 |
| 20260505213858 | 10 | 246 | 1.6 | 4.8 | 0.46 | 0.58 | 0.61 | 93 | 1005.9 |
| 20260505213351 | 10 | 258 | 1.6 | 6.4 | 0.43 | 0.51 | 0.51 | 92 | 1005.9 |
| 20260505212849 | 10 | 254 | 3.2 | 11.3 | 0.38 | 0.46 | 0.48 | 92 | 1005.8 |
| 20260505212343 | 11 | 219 | 1.6 | 11.3 | 0.38 | 0.43 | 0.43 | 92 | 1005.8 |
| 20260505211840 | 11 | 166 | 3.2 | 12.9 | 0.36 | 0.41 | 0.41 | 92 | 1005.7 |
| 20260505211337 | 11 | 315 | 3.2 | 17.7 | 0.36 | 0.38 | 0.38 | 92 | 1005.8 |
| 20260505210834 | 11 | 350 | 3.2 | 17.7 | 0.30 | 0.33 | 0.33 | 92 | 1005.8 |
| 20260505210334 | 12 | 302 | 4.8 | 14.5 | 0.28 | 0.28 | 0.28 | 92 | 1005.7 |
| 20260505205829 | 12 | 263 | 3.2 | 14.5 | 0.23 | 0.23 | 0.23 | 91 | 1005.8 |
| 20260505205323 | 12 | 170 | 3.2 | 9.7 | 0.20 | 0.20 | 0.20 | 91 | 1005.8 |
| 20260505204821 | 12 | 238 | 3.2 | 14.5 | 0.18 | 0.18 | 0.18 | 91 | 1005.7 |
| 20260505204309 | 12 | 242 | 4.8 | 16.1 | 0.15 | 0.15 | 0.15 | 90 | 1005.6 |
| 20260505204030 | 12 | 254 | 3.2 | 16.1 | 0.13 | 0.13 | 0.13 | 89 | 1005.6 |
| 20260505203258 | 13 | 248 | 1.6 | 11.3 | 0.08 | 0.08 | 0.08 | 89 | 1005.7 |
| 20260505202754 | 13 | 310 | 3.2 | 8.0 | 0.08 | 0.08 | 0.08 | 88 | 1005.5 |
| 20260505202243 | 13 | 303 | 3.2 | 11.3 | 0.05 | 0.05 | 0.05 | 87 | 1005.5 |
| 20260505202007 | 13 | 144 | 4.8 | 11.3 | 0.05 | 0.05 | 0.05 | 85 | 1005.5 |
| 20260505201243 | 13 | 312 | 3.2 | 9.7 | 0.03 | 0.03 | 0.03 | 84 | 1005.5 |
| 20260505200457 | 14 | 244 | 3.2 | 9.7 | 0.00 | 0.00 | 0.00 | 82 | 1005.3 |
| 20260505195735 | 15 | 269 | 3.2 | 14.5 | 0.00 | 0.00 | 0.00 | 82 | 1005.1 |
| 20260505195236 | 15 | 242 | 3.2 | 14.5 | 0.00 | 0.00 | 0.00 | 81 | 1005.1 |
| 20260505194731 | 15 | 292 | 3.2 | 11.3 | 0.00 | 0.00 | 0.00 | 80 | 1005.0 |
| 20260505194232 | 14 | 213 | 3.2 | 11.3 | 0.00 | 0.00 | 0.00 | 80 | 1005.1 |
| 20260505193729 | 14 | 227 | 1.6 | 6.4 | 0.00 | 0.00 | 0.00 | 81 | 1005.1 |
| 20260505193215 | 14 | 215 | 3.2 | 14.5 | 0.00 | 0.00 | 0.00 | 80 | 1005.4 |
| 20260505192715 | 15 | 239 | 3.2 | 14.5 | 0.00 | 0.00 | 0.00 | 80 | 1005.3 |
| 20260505192210 | 15 | 207 | 4.8 | 11.3 | 0.00 | 0.00 | 0.00 | 80 | 1005.4 |
| 20260505191703 | 15 | 343 | 4.8 | 14.5 | 0.00 | 0.00 | 0.00 | 80 | 1005.3 |
| 20260505191203 | 15 | 182 | 4.8 | 19.3 | 0.00 | 0.00 | 0.00 | 80 | 1005.3 |
| 20260505190647 | 15 | 277 | 3.2 | 19.3 | 0.00 | 0.00 | 0.00 | 80 | 1005.2 |
| 20260505190147 | 15 | 276 | 1.6 | 14.5 | 0.00 | 0.00 | 0.00 | 82 | 1005.4 |
| 20260505185643 | 15 | 284 | 3.2 | 9.7 | 0.00 | 0.00 | 0.00 | 81 | 1005.3 |
| 20260505185144 | 15 | 246 | 3.2 | 9.7 | 0.00 | 0.00 | 0.00 | 81 | 1005.2 |
| 20260505184641 | 14 | 281 | 4.8 | 11.3 | 0.00 | 0.00 | 0.00 | 81 | 1005.2 |
| 20260505184141 | 14 | 207 | 3.2 | 11.3 | 0.00 | 0.00 | 0.00 | 81 | 1005.3 |
| 20260505183637 | 15 | 172 | 3.2 | 11.3 | 0.00 | 0.00 | 0.00 | 81 | 1005.4 |
| 20260505183358 | 15 | 182 | 3.2 | 11.3 | 0.00 | 0.00 | 0.00 | 81 | 1005.5 |
| 20260505182629 | 15 | 179 | 4.8 | 16.1 | 0.00 | 0.00 | 0.00 | 81 | 1005.4 |
| 20260505182129 | 15 | 259 | 6.4 | 17.7 | 0.00 | 0.00 | 0.00 | 80 | 1005.3 |
| 20260505181626 | 15 | 257 | 6.4 | 17.7 | 0.00 | 0.00 | 0.00 | 79 | 1005.3 |
| 20260505181119 | 15 | 190 | 6.4 | 19.3 | 0.00 | 0.00 | 0.00 | 79 | 1005.1 |
| 20260505180840 | 15 | 305 | 6.4 | 19.3 | 0.00 | 0.00 | 0.00 | 78 | 1005.2 |
| 20260505180106 | 15 | 142 | 6.4 | 17.7 | 0.00 | 0.00 | 0.00 | 77 | 1005.1 |
| 20260505175603 | 16 | 200 | 4.8 | 17.7 | 0.00 | 0.00 | 0.00 | 76 | 1004.9 |
| 20260505175056 | 16 | 340 | 4.8 | 16.1 | 0.00 | 0.00 | 0.00 | 76 | 1004.8 |
| 20260505174555 | 16 | 271 | 6.4 | 20.9 | 0.00 | 0.00 | 0.00 | 74 | 1004.8 |
| 20260505174057 | 16 | 227 | 9.7 | 25.7 | 0.00 | 0.00 | 0.00 | 73 | 1004.7 |
| 20260505173556 | 17 | 265 | 9.7 | 25.7 | 0.00 | 0.00 | 0.00 | 72 | 1004.6 |
| 20260505173054 | 17 | 302 | 9.7 | 22.5 | 0.00 | 0.00 | 0.00 | 70 | 1004.5 |
| 20260505172549 | 17 | 307 | 9.7 | 20.9 | 0.00 | 0.00 | 0.00 | 70 | 1004.5 |
| 20260505172051 | 17 | 276 | 8.0 | 20.9 | 0.00 | 0.00 | 0.00 | 70 | 1004.5 |
| 20260505171548 | 17 | 341 | 8.0 | 24.1 | 0.00 | 0.00 | 0.00 | 72 | 1004.3 |
| 20260505171046 | 17 | 267 | 8.0 | 24.1 | 0.00 | 0.00 | 0.00 | 73 | 1004.3 |
| 20260505170542 | 16 | 62 | 6.4 | 22.5 | 0.00 | 0.00 | 0.00 | 73 | 1004.3 |
| 20260505170035 | 16 | 269 | 6.4 | 24.1 | 0.00 | 0.00 | 0.00 | 74 | 1004.4 |
| 20260505165536 | 16 | 168 | 8.0 | 24.1 | 0.00 | 0.00 | 0.00 | 74 | 1004.3 |
| 20260505164534 | 16 | 201 | 6.4 | 17.7 | 0.00 | 0.00 | 0.00 | 71 | 1004.5 |
| 20260505164033 | 17 | 289 | 6.4 | 17.7 | 0.00 | 0.00 | 0.00 | 69 | 1004.3 |
| 20260505163529 | 17 | 343 | 6.4 | 17.7 | 0.00 | 0.00 | 0.00 | 67 | 1004.4 |
| 20260505163027 | 18 | 257 | 4.8 | 16.1 | 0.00 | 0.00 | 0.00 | 66 | 1004.4 |
| 20260505162526 | 19 | 72 | 4.8 | 16.1 | 0.00 | 0.00 | 0.00 | 63 | 1004.2 |
| 20260505162015 | 20 | 257 | 4.8 | 14.5 | 0.00 | 0.00 | 0.00 | 65 | 1004.1 |
| 20260505161514 | 20 | 207 | 4.8 | 14.5 | 0.00 | 0.00 | 0.00 | 64 | 1003.7 |
| 20260505161014 | 20 | 292 | 3.2 | 14.5 | 0.00 | 0.00 | 0.00 | 67 | 1003.6 |
| 20260505160512 | 19 | 231 | 4.8 | 16.1 | 0.00 | 0.00 | 0.00 | 67 | 1003.4 |
| 20260505152954 | 18 | 202 | 6.4 | 17.7 | 0.00 | 0.00 | 0.00 | 69 | 1004.5 |
| 20260505152454 | 18 | 263 | 4.8 | 17.7 | 0.00 | 0.00 | 0.00 | 68 | 1004.3 |
| 20260505151952 | 18 | 218 | 4.8 | 20.9 | 0.00 | 0.00 | 0.00 | 68 | 1004.3 |
| 20260505151447 | 18 | 211 | 6.4 | 30.6 | 0.00 | 0.00 | 0.00 | 67 | 1004.0 |
| 20260505150946 | 18 | 247 | 8.0 | 30.6 | 0.00 | 0.00 | 0.00 | 67 | 1004.0 |
| 20260505150707 | 18 | 215 | 9.7 | 27.4 | 0.00 | 0.00 | 0.00 | 66 | 1003.9 |
| 20260505140400 | 18 | 229 | 6.4 | 17.7 | 0.00 | 0.00 | 0.00 | 69 | 1002.7 |
| 20260505124825 | 18 | 174 | 4.8 | 9.7 | 0.00 | 0.00 | 0.00 | 67 | 1002.6 |
| 20260505124325 | 18 | 102 | 6.4 | 17.7 | 0.00 | 0.00 | 0.00 | 67 | 1002.4 |
| 20260505123321 | 18 | 206 | 4.8 | 19.3 | 0.00 | 0.00 | 0.00 | 67 | 1002.3 |
| 20260505122822 | 18 | 173 | 4.8 | 19.3 | 0.00 | 0.00 | 0.00 | 66 | 1002.4 |
| 20260505122319 | 18 | 225 | 4.8 | 16.1 | 0.00 | 0.00 | 0.00 | 67 | 1002.3 |
| 20260505121819 | 18 | 196 | 4.8 | 16.1 | 0.00 | 0.00 | 0.00 | 68 | 1002.2 |
| 20260505121310 | 18 | 211 | 4.8 | 16.1 | 0.00 | 0.00 | 0.00 | 67 | 1002.1 |
| 20260505120808 | 18 | 231 | 6.4 | 19.3 | 0.00 | 0.00 | 0.00 | 67 | 1002.2 |
| 20260505120305 | 18 | 111 | 6.4 | 19.3 | 0.00 | 0.00 | 0.00 | 67 | 1001.7 |
| 20260505115804 | 18 | 221 | 6.4 | 20.9 | 0.00 | 0.00 | 0.00 | 67 | 1001.8 |
| 20260505115258 | 18 | 194 | 4.8 | 20.9 | 0.00 | 0.00 | 0.00 | 67 | 1001.7 |
| 20260505115021 | 18 | 154 | 4.8 | 24.1 | 0.00 | 0.00 | 0.00 | 68 | 1001.6 |
| 20260505114258 | 18 | 266 | 6.4 | 24.1 | 0.00 | 0.00 | 0.00 | 67 | 1001.7 |
| 20260505113753 | 18 | 180 | 6.4 | 17.7 | 0.00 | 0.00 | 0.00 | 68 | 1001.6 |
| 20260505113253 | 18 | 249 | 6.4 | 19.3 | 0.00 | 0.00 | 0.00 | 68 | 1001.6 |
| 20260505112753 | 18 | 227 | 6.4 | 19.3 | 0.00 | 0.00 | 0.00 | 68 | 1001.5 |
| 20260505112249 | 18 | 207 | 4.8 | 17.7 | 0.00 | 0.00 | 0.00 | 68 | 1001.3 |
| 20260505111746 | 18 | 219 | 4.8 | 20.9 | 0.00 | 0.00 | 0.00 | 68 | 1001.3 |
| 20260505111246 | 17 | 207 | 4.8 | 20.9 | 0.00 | 0.00 | 0.00 | 68 | 1001.3 |
| 20260505110742 | 17 | 138 | 4.8 | 16.1 | 0.00 | 0.00 | 0.00 | 68 | 1001.2 |
| 20260505110458 | 17 | 217 | 4.8 | 17.7 | 0.00 | 0.00 | 0.00 | 68 | 1000.9 |
| 20260505102215 | 17 | 217 | 1.6 | 8.0 | 0.00 | 0.00 | 0.00 | 68 | 1000.4 |
| 20260505101712 | 17 | 276 | 3.2 | 16.1 | 0.00 | 0.00 | 0.00 | 68 | 1000.3 |
| 20260505101213 | 17 | 237 | 3.2 | 16.1 | 0.00 | 0.00 | 0.00 | 67 | 1000.3 |
| 20260505100707 | 17 | 254 | 3.2 | 11.3 | 0.00 | 0.00 | 0.00 | 67 | 1000.4 |
| 20260505100159 | 17 | 172 | 3.2 | 16.1 | 0.00 | 0.00 | 0.00 | 67 | 1000.2 |
| 20260505095701 | 18 | 221 | 4.8 | 16.1 | 0.00 | 0.00 | 0.00 | 67 | 1000.1 |
| 20260505095136 | 18 | 142 | 3.2 | 16.1 | 0.00 | 0.00 | 0.00 | 66 | 1000.1 |
| 20260505094631 | 18 | 146 | 3.2 | 17.7 | 0.00 | 0.00 | 0.00 | 67 | 1000.1 |
| 20260505094125 | 18 | 185 | 4.8 | 17.7 | 0.00 | 0.00 | 0.00 | 67 | 1000.0 |
| 20260505093628 | 18 | 240 | 4.8 | 17.7 | 0.00 | 0.00 | 0.00 | 67 | 1000.1 |
| 20260505093125 | 18 | 244 | 4.8 | 20.9 | 0.00 | 0.00 | 0.00 | 67 | 1000.1 |
| 20260505092843 | 17 | 221 | 4.8 | 20.9 | 0.00 | 0.00 | 0.00 | 68 | 1000.0 |
| 20260505092118 | 17 | 189 | 4.8 | 20.9 | 0.00 | 0.00 | 0.00 | 68 | 999.9 |
| 20260505091615 | 17 | 223 | 3.2 | 20.9 | 0.00 | 0.00 | 0.00 | 68 | 999.9 |
| 20260505091114 | 17 | 121 | 3.2 | 24.1 | 0.00 | 0.00 | 0.00 | 68 | 1000.0 |
| 20260505090614 | 17 | 184 | 4.8 | 24.1 | 0.00 | 0.00 | 0.00 | 68 | 1000.0 |
| 20260505090110 | 17 | 138 | 3.2 | 16.1 | 0.00 | 0.00 | 0.00 | 68 | 1000.1 |
| 20260505085609 | 17 | 217 | 1.6 | 14.5 | 0.00 | 0.00 | 0.00 | 68 | 1000.1 |
| 20260505085104 | 17 | 91 | 3.2 | 14.5 | 0.00 | 0.00 | 0.00 | 68 | 1000.0 |
| 20260505084602 | 17 | 229 | 3.2 | 14.5 | 0.00 | 0.00 | 0.00 | 68 | 1000.1 |
| 20260505084054 | 17 | 190 | 3.2 | 16.1 | 0.00 | 0.00 | 0.00 | 69 | 1000.1 |
| 20260505083554 | 17 | 178 | 4.8 | 16.1 | 0.00 | 0.00 | 0.00 | 69 | 999.8 |
| 20260505083048 | 17 | 236 | 4.8 | 14.5 | 0.00 | 0.00 | 0.00 | 69 | 999.9 |
| 20260505082545 | 17 | 186 | 4.8 | 14.5 | 0.00 | 0.00 | 0.00 | 69 | 999.7 |
| 20260505082046 | 17 | 202 | 3.2 | 11.3 | 0.00 | 0.00 | 0.00 | 68 | 999.6 |
| 20260505081533 | 18 | 224 | 1.6 | 11.3 | 0.00 | 0.00 | 0.00 | 68 | 999.6 |
| 20260505081034 | 18 | 181 | 3.2 | 11.3 | 0.00 | 0.00 | 0.00 | 67 | 999.7 |
| 20260505080535 | 18 | 222 | 4.8 | 19.3 | 0.00 | 0.00 | 0.00 | 67 | 999.9 |
| 20260505080254 | 18 | 227 | 4.8 | 19.3 | 0.00 | 0.00 | 0.00 | 67 | 999.8 |
| 20260505075534 | 18 | 223 | 4.8 | 25.7 | 0.00 | 0.00 | 0.00 | 67 | 999.6 |
| 20260505075032 | 18 | 102 | 4.8 | 25.7 | 0.00 | 0.00 | 0.00 | 67 | 999.8 |
| 20260505074527 | 18 | 207 | 3.2 | 11.3 | 0.00 | 0.00 | 0.00 | 67 | 999.8 |
| 20260505074022 | 18 | 222 | 3.2 | 11.3 | 0.00 | 0.00 | 0.00 | 67 | 999.7 |
| 20260505073749 | 18 | 130 | 4.8 | 11.3 | 0.00 | 0.00 | 0.00 | 67 | 1000.0 |
| 20260505073013 | 18 | 202 | 4.8 | 14.5 | 0.00 | 0.00 | 0.00 | 67 | 999.9 |
| 20260505072731 | 18 | 183 | 4.8 | 14.5 | 0.00 | 0.00 | 0.00 | 67 | 999.9 |
| 20260505072006 | 18 | 211 | 3.2 | 22.5 | 0.00 | 0.00 | 0.00 | 67 | 999.7 |
| 20260505071457 | 18 | 198 | 4.8 | 22.5 | 0.00 | 0.00 | 0.00 | 67 | 999.9 |
| 20260505070952 | 18 | 73 | 4.8 | 17.7 | 0.00 | 0.00 | 0.00 | 67 | 999.7 |
| 20260505070434 | 18 | 150 | 3.2 | 11.3 | 0.00 | 0.00 | 0.00 | 67 | 999.8 |
| 20260505070152 | 18 | 124 | 3.2 | 9.7 | 0.00 | 0.00 | 0.00 | 67 | 999.8 |
| 20260505065435 | 18 | 141 | 4.8 | 22.5 | 0.00 | 0.00 | 0.00 | 66 | 999.9 |
| 20260505064936 | 18 | 180 | 4.8 | 22.5 | 0.00 | 0.00 | 0.00 | 67 | 999.9 |
| 20260505063932 | 18 | 234 | 3.2 | 11.3 | 0.00 | 0.00 | 0.00 | 67 | 1000.0 |
| 20260505063431 | 18 | 261 | 3.2 | 12.9 | 0.00 | 0.00 | 0.00 | 66 | 1000.2 |
| 20260505063156 | 18 | 111 | 3.2 | 12.9 | 0.00 | 0.00 | 0.00 | 66 | 1000.3 |
| 20260505062426 | 18 | 246 | 4.8 | 17.7 | 0.00 | 0.00 | 0.00 | 66 | 1000.3 |
| 20260505061907 | 18 | 217 | 4.8 | 20.9 | 0.00 | 0.00 | 0.00 | 64 | 1000.3 |
| 20260505061351 | 18 | 229 | 4.8 | 20.9 | 0.00 | 0.00 | 0.00 | 64 | 1000.3 |
| 20260505060850 | 18 | 242 | 6.4 | 20.9 | 0.00 | 0.00 | 0.00 | 64 | 1000.4 |
| 20260505060343 | 18 | 222 | 6.4 | 32.2 | 0.00 | 0.00 | 0.00 | 64 | 1000.6 |
| 20260505055844 | 18 | 87 | 9.7 | 35.4 | 0.00 | 0.00 | 0.00 | 64 | 1000.5 |
| 20260505055339 | 18 | 216 | 9.7 | 35.4 | 0.00 | 0.00 | 0.00 | 64 | 1000.7 |
| 20260505054838 | 18 | 131 | 6.4 | 25.7 | 0.00 | 0.00 | 0.00 | 65 | 1000.6 |
| 20260505054337 | 18 | 238 | 6.4 | 20.9 | 0.00 | 0.00 | 0.00 | 66 | 1000.8 |
| 20260505054106 | 18 | 143 | 4.8 | 20.9 | 0.00 | 0.00 | 0.00 | 67 | 1000.7 |
| 20260505053333 | 18 | 201 | 3.2 | 19.3 | 0.00 | 0.00 | 0.00 | 67 | 1000.7 |
| 20260505052830 | 18 | 236 | 4.8 | 19.3 | 0.00 | 0.00 | 0.00 | 67 | 1000.8 |
| 20260505052555 | 18 | 194 | 4.8 | 17.7 | 0.00 | 0.00 | 0.00 | 67 | 1001.0 |
| 20260505051758 | 17 | 217 | 3.2 | 16.1 | 0.00 | 0.00 | 0.00 | 68 | 1000.8 |
| 20260505051254 | 17 | 180 | 4.8 | 20.9 | 0.00 | 0.00 | 0.00 | 69 | 1001.0 |
| 20260505050754 | 17 | 215 | 3.2 | 20.9 | 0.00 | 0.00 | 0.00 | 70 | 1000.8 |
| 20260505050248 | 16 | 202 | 1.6 | 14.5 | 0.00 | 0.00 | 0.00 | 73 | 1001.0 |
| 20260505040329 | 16 | 302 | 1.6 | 6.4 | 0.00 | 0.10 | 0.00 | 72 | 1002.1 |
| 20260505035828 | 16 | 261 | 3.2 | 11.3 | 0.00 | 0.10 | 0.10 | 70 | 1002.2 |
| 20260505035547 | 17 | 219 | 4.8 | 14.5 | 0.00 | 0.10 | 0.10 | 68 | 1002.5 |
| 20260505034822 | 18 | 263 | 4.8 | 14.5 | 0.00 | 0.10 | 0.10 | 64 | 1002.6 |
| 20260505034313 | 18 | 193 | 3.2 | 20.9 | 0.00 | 0.10 | 0.10 | 64 | 1002.4 |